Altisurface de La Taillade

METAR LFLC TAF LFLC
3 °C
°C
-
°C
30m
Edad
00:29:51
LT
23:29
UTC
0 ft

1.000

2.000

3.000

4.000

5.000

OVC 3.400
VFR
<?= Yii::t('app', 'Wind direction') ?> <?= Yii::t('app', 'of'); ?>
350°
08:02
Amanecer
75%
Humedad
Cizalladura del viento
Cerrado/Nieve
Alcance visual RWY
Estado de la RWY
Visibilidad vert.
Visibilidad mínima
CAVOK
Tendencia
Corrección
Informe especial
1029 hPa
QNH
METAR LFLC 062300Z AUTO 35007KT 9999 OVC034 03/M01 Q1029 TEMPO BKN012
Cubierto
0 kt
0 kt
00:00
VFR
8 kt
01:00
MVFR
8 kt
02:00
MVFR
8 kt
03:00
MVFR
8 kt
04:00
MVFR
8 kt
05:00
MVFR
8 kt
06:00
MVFR
8 kt
10 km+
Visibilidad
3.400 ft
Cielo nuboso
7 kt
Viento
metar-taf.com/FR-0290

Metar-Taf.com

Decodificador visual

Nosotros y terceros seguimos tu comportamiento en Internet en nuestro sitio web con cookies. Si continúas, asumimos que estás de acuerdo con nuestra Política de cookies.